Time;durP1;ratioP1;P1;durP2;ratioP2;P2;SDS_P1;SDS_P2;PMS_P1;PMS_P2;Temp;Humidity;BMP_temperature;BMP_pressure;BME280_temperature;BME280_humidity;BME280_pressure;Samples;Min_cycle;Max_cycle;Signal;HPM_P1;HPM_P2
2023/04/06 00:01:19;;;;;;;7.47;2.97;;;;;;;6.05;33.99;94529.25;5019966;28;20017;-95
2023/04/06 00:03:44;;;;;;;10.65;3.47;;;;;;;5.64;34.43;94537.88;5038588;28;20021;-94
2023/04/06 00:06:10;;;;;;;6.88;3.47;;;;;;;5.78;34.32;94540.19;5036016;28;20021;-95
2023/04/06 00:11:57;;;;;;;9.40;3.90;;;;;;;5.48;34.65;94530.81;5057066;28;20425;-94
2023/04/06 00:17:45;;;;;;;8.57;2.97;;;;;;;5.56;34.31;94524.44;5059915;28;20345;-94
2023/04/06 00:20:10;;;;;;;7.05;3.20;;;;;;;5.12;35.87;94523.09;5023839;28;20112;-94
2023/04/06 00:22:36;;;;;;;7.15;2.92;;;;;;;5.56;34.99;94527.84;5041041;28;20017;-93
2023/04/06 00:25:01;;;;;;;5.43;2.92;;;;;;;5.28;35.77;94520.78;5039895;28;20025;-94
2023/04/06 00:27:27;;;;;;;7.93;3.50;;;;;;;5.07;36.05;94525.59;5040196;28;20423;-94
2023/04/06 00:29:52;;;;;;;6.60;3.28;;;;;;;5.48;35.90;94525.59;5023221;28;20039;-94
2023/04/06 00:32:18;;;;;;;8.07;3.08;;;;;;;5.94;35.23;94533.47;5023399;28;20029;-94
2023/04/06 00:34:43;;;;;;;5.57;3.00;;;;;;;5.87;34.34;94531.00;5025939;28;20029;-94
2023/04/06 00:37:09;;;;;;;6.47;3.03;;;;;;;5.65;34.59;94530.88;5023434;28;20078;-95
2023/04/06 00:39:34;;;;;;;10.68;3.67;;;;;;;5.69;35.76;94533.81;5040788;28;20026;-95
2023/04/06 00:42:01;;;;;;;8.23;3.15;;;;;;;5.84;34.91;94528.88;5039550;28;20032;-95
2023/04/06 00:44:26;;;;;;;10.30;3.85;;;;;;;5.48;36.73;94529.00;5039448;28;20387;-93
2023/04/06 00:46:52;;;;;;;6.78;3.00;;;;;;;5.59;36.04;94534.38;5039417;28;20108;-94
2023/04/06 00:49:18;;;;;;;7.72;3.22;;;;;;;5.85;34.82;94537.44;5039443;28;20025;-95
2023/04/06 00:51:43;;;;;;;6.78;3.05;;;;;;;5.85;34.06;94529.66;5059079;28;20029;-94
2023/04/06 00:54:09;;;;;;;7.72;3.05;;;;;;;5.87;33.74;94543.22;5039428;28;20026;-96
2023/04/06 00:56:34;;;;;;;6.70;2.83;;;;;;;5.95;33.17;94535.03;5040460;28;20031;-94
2023/04/06 00:59:00;;;;;;;7.70;3.30;;;;;;;6.12;32.86;94542.13;5023149;28;20032;-94
2023/04/06 01:01:26;;;;;;;8.23;3.40;;;;;;;5.66;34.29;94545.44;5039394;28;20025;-94
2023/04/06 01:03:51;;;;;;;9.95;3.08;;;;;;;5.29;34.80;94536.16;5039236;28;20025;-94
2023/04/06 01:06:17;;;;;;;10.60;3.70;;;;;;;5.34;35.48;94540.69;5039298;28;20099;-94
2023/04/06 01:08:42;;;;;;;8.43;3.08;;;;;;;5.78;36.35;94533.19;5024950;28;20237;-94
2023/04/06 01:11:08;;;;;;;6.68;3.55;;;;;;;5.28;36.06;94531.19;5022877;28;20025;-95
2023/04/06 01:13:33;;;;;;;11.80;3.20;;;;;;;4.60;36.69;94531.59;5040037;28;20032;-94
2023/04/06 01:15:59;;;;;;;8.73;2.97;;;;;;;5.05;35.66;94519.84;5022721;28;20079;-94
2023/04/06 01:18:28;;;;;;;8.43;3.15;;;;;;;4.91;34.99;94525.28;5022525;28;20028;-95
2023/04/06 01:20:54;;;;;;;6.78;3.05;;;;;;;5.33;33.86;94523.50;5022615;28;20021;-95
2023/04/06 01:23:20;;;;;;;7.28;3.22;;;;;;;5.62;33.63;94523.53;5022297;28;20075;-96
2023/04/06 01:25:45;;;;;;;9.10;3.13;;;;;;;5.47;35.91;94524.03;5025250;28;20025;-95
2023/04/06 01:28:10;;;;;;;6.72;3.20;;;;;;;5.70;34.95;94520.56;5022328;28;20032;-95
2023/04/06 01:30:36;;;;;;;7.47;3.22;;;;;;;5.54;35.23;94527.28;5023576;28;20029;-94
2023/04/06 01:33:01;;;;;;;7.03;3.33;;;;;;;5.27;35.83;94514.03;5022646;28;20060;-96
2023/04/06 01:35:27;;;;;;;8.63;3.30;;;;;;;5.24;36.94;94516.06;5022546;28;20029;-95
2023/04/06 01:37:53;;;;;;;6.35;3.25;;;;;;;4.73;36.20;94509.78;5022188;28;20037;-95
2023/04/06 01:40:18;;;;;;;5.78;3.28;;;;;;;4.91;36.42;94507.09;5022167;28;20040;-95
2023/04/06 01:42:44;;;;;;;8.48;2.95;;;;;;;5.36;35.93;94517.84;5024550;28;20107;-95
2023/04/06 01:45:10;;;;;;;6.05;3.10;;;;;;;5.33;36.92;94500.91;5022203;28;20450;-94
2023/04/06 01:47:35;;;;;;;5.57;2.72;;;;;;;5.27;36.01;94503.63;5023182;28;20038;-94
2023/04/06 01:50:02;;;;;;;7.45;2.92;;;;;;;5.15;35.83;94507.03;5022090;28;20064;-94
2023/04/06 01:52:28;;;;;;;6.03;2.65;;;;;;;4.87;35.79;94503.34;5022190;28;20125;-95
2023/04/06 01:54:54;;;;;;;10.13;3.00;;;;;;;4.89;36.49;94506.53;5021941;28;20040;-95
2023/04/06 01:57:20;;;;;;;6.78;3.08;;;;;;;5.09;35.08;94516.56;5022074;28;20033;-94
2023/04/06 01:59:45;;;;;;;7.07;3.15;;;;;;;5.17;35.76;94510.22;5024419;28;20347;-95
2023/04/06 02:02:12;;;;;;;5.40;2.30;;;;;;;5.45;33.98;94507.88;5021710;28;20029;-94
2023/04/06 02:04:38;;;;;;;6.20;2.75;;;;;;;5.51;34.13;94507.75;5023346;28;20049;-94
2023/04/06 02:07:04;;;;;;;7.55;3.20;;;;;;;5.08;34.71;94501.97;5021838;28;20037;-95
2023/04/06 02:09:29;;;;;;;4.47;2.78;;;;;;;4.83;35.53;94502.25;5038569;28;20069;-94
2023/04/06 02:11:55;;;;;;;7.40;3.03;;;;;;;4.93;34.31;94499.06;5025023;28;20083;-95
2023/04/06 02:14:21;;;;;;;7.10;2.95;;;;;;;4.92;34.94;94498.28;5021588;28;20035;-94
2023/04/06 02:16:46;;;;;;;5.70;2.92;;;;;;;5.15;35.33;94504.44;5024463;28;20040;-93
2023/04/06 02:22:35;;;;;;;10.32;2.97;;;;;;;5.16;34.55;94493.03;5056273;28;20040;-93
2023/04/06 02:25:01;;;;;;;5.43;2.78;;;;;;;5.42;33.82;94498.72;5021453;28;20029;-94
2023/04/06 02:27:26;;;;;;;7.78;2.63;;;;;;;5.23;33.81;94485.91;5021354;28;20052;-94
2023/04/06 02:29:51;;;;;;;6.53;2.85;;;;;;;4.66;35.44;94484.75;5037603;28;20510;-94
2023/04/06 02:32:17;;;;;;;8.95;2.63;;;;;;;5.15;33.94;94488.84;5021229;28;20427;-95
2023/04/06 02:34:42;;;;;;;9.30;2.65;;;;;;;5.21;33.70;94480.16;5057309;28;20143;-93
2023/04/06 02:37:08;;;;;;;6.38;2.40;;;;;;;5.48;33.30;94489.22;5021140;28;20028;-94
2023/04/06 02:39:33;;;;;;;6.50;2.90;;;;;;;5.38;33.83;94479.44;5021070;28;20128;-92
2023/04/06 02:41:59;;;;;;;4.38;2.67;;;;;;;5.12;34.62;94478.94;5021136;28;20323;-95
2023/04/06 02:44:25;;;;;;;6.60;2.78;;;;;;;5.33;34.49;94476.75;5021071;28;20032;-95
2023/04/06 02:46:50;;;;;;;4.72;2.40;;;;;;;5.28;33.66;94484.44;5024125;28;20123;-95
2023/04/06 02:49:16;;;;;;;5.38;2.70;;;;;;;5.37;33.86;94475.25;5020863;28;20087;-94
2023/04/06 02:51:41;;;;;;;4.47;2.45;;;;;;;5.23;34.13;94478.13;5022819;28;20036;-94
2023/04/06 02:54:07;;;;;;;5.03;2.38;;;;;;;5.18;34.67;94470.25;5020854;28;20411;-95
2023/04/06 02:56:32;;;;;;;4.15;2.35;;;;;;;5.41;33.13;94473.78;5021464;28;20397;-93
2023/04/06 02:58:57;;;;;;;3.53;2.00;;;;;;;5.24;33.38;94468.53;5037436;28;20050;-95
2023/04/06 03:01:23;;;;;;;6.88;2.25;;;;;;;5.36;32.31;94473.69;5020728;28;20030;-94
2023/04/06 03:03:48;;;;;;;4.20;2.28;;;;;;;5.39;33.08;94491.41;5023861;28;20025;-95
2023/04/06 03:06:14;;;;;;;3.80;2.38;;;;;;;5.65;31.90;94478.88;5020663;28;20080;-93
2023/04/06 03:08:39;;;;;;;4.78;2.50;;;;;;;5.85;31.60;94488.03;5022427;28;20029;-94
2023/04/06 03:11:05;;;;;;;4.10;2.28;;;;;;;5.77;32.20;94486.63;5020497;28;20443;-96
2023/04/06 03:13:30;;;;;;;4.43;2.45;;;;;;;5.88;31.52;94482.38;5021260;28;20033;-94
2023/04/06 03:19:53;;;;;;;5.55;2.38;;;;;;;5.97;30.94;94491.38;5052987;28;20096;-94
2023/04/06 03:22:20;;;;;;;4.40;2.50;;;;;;;5.56;32.32;94486.25;5020636;28;20489;-95
2023/04/06 03:25:04;;;;;;;4.43;2.35;;;;;;;6.08;30.70;94489.75;5039327;28;20084;-93
2023/04/06 03:27:49;;;;;;;6.55;2.65;;;;;;;6.04;31.06;94486.06;5036788;28;20029;-95
2023/04/06 03:30:34;;;;;;;5.63;2.50;;;;;;;6.10;30.81;94492.94;5057496;28;20033;-95
2023/04/06 03:33:00;;;;;;;7.60;2.58;;;;;;;5.54;33.50;94485.72;5036568;28;20022;-93
2023/04/06 03:35:25;;;;;;;6.78;2.53;;;;;;;5.66;32.59;94485.66;5036621;28;20493;-94
2023/04/06 03:37:50;;;;;;;7.18;2.60;;;;;;;5.82;32.56;94491.13;5039821;28;20455;-94
2023/04/06 03:40:16;;;;;;;3.75;1.83;;;;;;;5.69;31.04;94498.19;5020161;28;20454;-93
2023/04/06 03:45:44;;;;;;;5.00;2.10;;;;;;;6.28;30.58;94496.34;5036494;28;20359;-96
2023/04/06 03:48:10;;;;;;;3.47;2.20;;;;;;;5.55;31.37;94500.28;5036374;28;20026;-95
2023/04/06 03:50:35;;;;;;;4.40;2.17;;;;;;;5.48;31.34;94502.22;5036987;28;20030;-94
2023/04/06 03:53:03;;;;;;;8.85;2.67;;;;;;;5.76;31.21;94506.66;5036352;28;20537;-94
2023/04/06 03:55:48;;;;;;;8.60;2.28;;;;;;;6.21;30.72;94502.47;5036523;28;20072;-93
2023/04/06 03:58:13;;;;;;;8.15;2.22;;;;;;;5.72;31.01;94502.91;5036420;28;20036;-94
2023/04/06 04:00:57;;;;;;;4.97;2.42;;;;;;;5.86;30.85;94505.22;5037795;28;20026;-93
2023/04/06 04:03:23;;;;;;;3.78;1.90;;;;;;;5.99;30.32;94512.75;5057104;28;20039;-94
2023/04/06 04:05:50;;;;;;;5.43;2.30;;;;;;;6.01;30.34;94515.91;5039102;28;20025;-94
2023/04/06 04:10:59;;;;;;;4.15;2.58;;;;;;;6.08;30.22;94516.56;5041977;28;20516;-94
2023/04/06 04:13:25;;;;;;;4.65;2.10;;;;;;;5.52;31.88;94522.31;5036185;28;20120;-94
2023/04/06 04:15:50;;;;;;;5.35;2.58;;;;;;;5.70;32.07;94523.16;5039490;28;20028;-95
2023/04/06 04:18:16;;;;;;;4.93;2.17;;;;;;;5.68;32.70;94525.19;5036007;28;20505;-93
2023/04/06 04:20:41;;;;;;;7.43;2.38;;;;;;;5.37;32.25;94522.03;5021781;28;20346;-95
2023/04/06 04:23:06;;;;;;;4.97;2.05;;;;;;;5.06;34.40;94521.41;5056950;28;20389;-95
2023/04/06 04:25:32;;;;;;;5.88;2.40;;;;;;;4.73;33.56;94526.19;5020512;28;20028;-92
2023/04/06 04:27:57;;;;;;;5.22;1.92;;;;;;;4.87;34.48;94521.53;5036111;28;20079;-94
2023/04/06 04:30:41;;;;;;;5.18;2.28;;;;;;;4.02;36.05;94521.69;5035778;28;20447;-93
2023/04/06 04:33:07;;;;;;;5.50;2.55;;;;;;;4.79;33.92;94521.88;5050805;28;20068;-94
2023/04/06 04:35:32;;;;;;;6.93;2.90;;;;;;;4.65;34.77;94521.31;5056903;28;20043;-95
2023/04/06 04:37:58;;;;;;;6.40;2.85;;;;;;;4.27;35.57;94523.31;5036070;28;20033;-95
2023/04/06 04:40:23;;;;;;;6.50;2.58;;;;;;;4.40;35.50;94524.94;5036240;28;20060;-96
2023/04/06 04:42:50;;;;;;;3.63;2.30;;;;;;;4.92;34.76;94524.25;5038832;28;20024;-94
2023/04/06 04:45:16;;;;;;;5.43;2.83;;;;;;;4.65;34.18;94526.50;5035758;28;20029;-95
2023/04/06 04:48:00;;;;;;;5.97;2.28;;;;;;;4.42;35.45;94524.69;5037919;28;20087;-95
2023/04/06 04:50:29;;;;;;;8.70;2.55;;;;;;;4.52;35.06;94528.31;5056719;28;20028;-95
2023/04/06 04:53:05;;;;;;;5.78;2.33;;;;;;;4.24;35.71;94518.56;5036151;28;20107;-95
2023/04/06 04:55:49;;;;;;;6.43;2.10;;;;;;;5.06;33.58;94519.59;5020465;28;20098;-94
2023/04/06 04:58:16;;;;;;;4.47;2.40;;;;;;;4.87;33.92;94526.72;5035769;28;20549;-95
2023/04/06 05:01:00;;;;;;;5.70;2.13;;;;;;;5.40;33.18;94518.97;5055367;28;20024;-96
2023/04/06 05:03:26;;;;;;;5.68;2.67;;;;;;;4.88;34.88;94523.13;5037141;28;20072;-94
2023/04/06 05:05:52;;;;;;;9.48;2.95;;;;;;;4.17;36.30;94518.69;5039061;28;20064;-95
2023/04/06 05:08:18;;;;;;;5.20;2.63;;;;;;;4.31;35.25;94523.66;5039228;28;20116;-94
2023/04/06 05:11:02;;;;;;;3.70;2.08;;;;;;;4.81;34.50;94525.03;5041415;28;20079;-94
2023/04/06 05:13:30;;;;;;;4.90;2.30;;;;;;;5.24;34.59;94525.69;5039743;28;20072;-95
2023/04/06 05:15:55;;;;;;;7.00;2.35;;;;;;;4.91;36.14;94521.88;5039186;28;20033;-94
2023/04/06 05:18:21;;;;;;;8.18;2.80;;;;;;;4.69;36.15;94524.25;5056033;28;20033;-94
2023/04/06 05:20:47;;;;;;;4.07;1.98;;;;;;;4.90;34.72;94523.69;5041640;28;20086;-95
2023/04/06 05:23:15;;;;;;;6.50;2.60;;;;;;;4.51;34.84;94523.34;5038857;28;20087;-94
2023/04/06 05:25:41;;;;;;;3.10;2.30;;;;;;;4.71;35.64;94524.81;5040842;28;20029;-95
2023/04/06 05:28:06;;;;;;;4.40;2.45;;;;;;;5.08;34.99;94522.75;5038693;28;20030;-95
2023/04/06 05:30:32;;;;;;;5.15;2.38;;;;;;;4.99;35.43;94528.53;5023104;28;20029;-94
2023/04/06 05:32:57;;;;;;;8.88;2.60;;;;;;;5.06;34.62;94522.19;5039217;28;20389;-95
2023/04/06 05:35:22;;;;;;;8.77;2.00;;;;;;;4.96;33.91;94527.19;5021943;28;20033;-95
2023/04/06 05:38:07;;;;;;;6.13;2.17;;;;;;;5.31;32.36;94528.94;5041722;28;20120;-95
2023/04/06 05:40:32;;;;;;;6.05;2.25;;;;;;;5.59;33.13;94529.19;5039135;28;20033;-95
2023/04/06 05:42:57;;;;;;;6.00;2.40;;;;;;;6.05;32.71;94531.84;5038584;28;20026;-94
2023/04/06 05:45:23;;;;;;;5.63;2.53;;;;;;;5.70;32.52;94530.94;5021682;28;20036;-93
2023/04/06 05:50:32;;;;;;;4.47;2.03;;;;;;;5.92;31.66;94530.31;5039358;28;20465;-94
2023/04/06 05:52:58;;;;;;;9.65;1.88;;;;;;;6.38;32.39;94527.69;5022113;28;20021;-92
2023/04/06 05:55:42;;;;;;;6.13;2.40;;;;;;;6.68;31.58;94531.81;5016267;28;20051;-93
2023/04/06 05:58:07;;;;;;;5.13;2.25;;;;;;;6.91;31.73;94530.84;5042425;28;20039;-93
2023/04/06 06:00:33;;;;;;;3.67;2.15;;;;;;;7.19;31.89;94542.16;5014097;28;20124;-92
2023/04/06 06:03:17;;;;;;;4.32;2.13;;;;;;;7.09;32.72;94528.97;5037978;28;20029;-92
2023/04/06 06:05:43;;;;;;;9.27;2.72;;;;;;;7.15;33.49;94530.63;5040194;28;20022;-92
2023/04/06 06:08:08;;;;;;;5.50;2.60;;;;;;;7.54;31.96;94527.19;5021597;28;20032;-92
2023/04/06 06:10:34;;;;;;;4.90;2.42;;;;;;;7.44;31.89;94538.25;5022391;28;20025;-93
2023/04/06 06:13:01;;;;;;;4.55;2.30;;;;;;;7.45;31.82;94544.28;5020695;28;20029;-92
2023/04/06 06:15:45;;;;;;;7.90;2.45;;;;;;;7.05;31.67;94543.53;5037713;28;20029;-93
2023/04/06 06:18:11;;;;;;;6.72;2.53;;;;;;;6.81;31.48;94530.69;5059023;28;20064;-92
2023/04/06 06:20:44;;;;;;;4.97;2.40;;;;;;;7.52;31.28;94534.44;5022933;28;20114;-94
2023/04/06 06:23:12;;;;;;;3.70;2.50;;;;;;;7.63;31.84;94538.75;5021943;28;20040;-93
2023/04/06 06:25:39;;;;;;;5.13;3.08;;;;;;;7.70;31.48;94528.13;5023391;28;20108;-93
2023/04/06 06:28:30;;;;;;;4.40;2.08;;;;;;;7.65;31.26;94528.09;5037614;28;20029;-95
2023/04/06 06:30:58;;;;;;;10.45;3.00;;;;;;;7.77;31.34;94525.34;5040841;28;20027;-95
2023/04/06 06:33:23;;;;;;;6.07;2.40;;;;;;;8.12;30.82;94531.16;5024778;28;20029;-93
2023/04/06 06:35:50;;;;;;;6.50;2.10;;;;;;;8.62;30.78;94530.03;5024492;28;20426;-92
2023/04/06 06:38:16;;;;;;;5.35;2.40;;;;;;;8.81;31.40;94528.81;5021746;28;20033;-94
2023/04/06 06:40:45;;;;;;;9.55;2.80;;;;;;;9.15;33.02;94533.75;5023259;28;20356;-93
2023/04/06 06:46:13;;;;;;;10.55;2.80;;;;;;;9.12;31.17;94536.88;5041435;28;20035;-93
2023/04/06 06:48:41;;;;;;;5.75;2.50;;;;;;;9.24;31.85;94528.81;5039001;28;20485;-93
2023/04/06 06:51:07;;;;;;;7.28;2.60;;;;;;;9.71;30.93;94529.78;5020625;28;20435;-94
2023/04/06 06:53:35;;;;;;;5.18;2.42;;;;;;;9.69;32.30;94526.66;5021839;28;20025;-93
2023/04/06 06:56:01;;;;;;;4.43;2.25;;;;;;;9.64;31.98;94524.81;5021145;28;20025;-94
2023/04/06 06:58:46;;;;;;;4.78;2.42;;;;;;;10.28;31.49;94538.53;5020694;28;20028;-94
2023/04/06 07:01:23;;;;;;;5.13;2.47;;;;;;;10.28;31.44;94533.28;5020874;28;20517;-93
2023/04/06 07:07:13;;;;;;;6.70;3.05;;;;;;;10.12;31.24;94539.56;5040595;28;20094;-93
2023/04/06 07:09:38;;;;;;;6.45;2.80;;;;;;;9.72;31.86;94536.59;5038608;28;20029;-92
2023/04/06 07:12:04;;;;;;;7.25;3.05;;;;;;;9.71;32.51;94545.50;5020292;28;20029;-93
2023/04/06 07:14:29;;;;;;;5.90;2.90;;;;;;;9.12;33.06;94545.50;5021199;28;20036;-93
2023/04/06 07:16:55;;;;;;;7.78;2.80;;;;;;;9.60;32.97;94534.97;5020521;28;20127;-92
2023/04/06 07:19:20;;;;;;;8.05;2.40;;;;;;;10.13;32.40;94556.84;5020364;28;20029;-93
2023/04/06 07:22:05;;;;;;;12.90;3.45;;;;;;;10.35;30.39;94551.38;5022904;28;20110;-94
2023/04/06 07:24:30;;;;;;;5.47;2.63;;;;;;;10.17;31.02;94555.28;5020859;28;20082;-93
2023/04/06 07:26:58;;;;;;;5.80;2.95;;;;;;;10.42;31.06;94545.91;5035770;28;20026;-95
2023/04/06 07:29:29;;;;;;;6.68;2.78;;;;;;;10.36;30.40;94547.69;5023435;28;20033;-94
2023/04/06 07:31:59;;;;;;;6.43;2.60;;;;;;;10.92;30.50;94554.00;5026034;28;20025;-95
2023/04/06 07:34:24;;;;;;;6.07;2.92;;;;;;;10.87;29.58;94560.03;5038675;28;20025;-94
2023/04/06 07:36:52;;;;;;;7.32;3.20;;;;;;;10.52;31.19;94559.00;5023479;28;20047;-94
2023/04/06 07:39:18;;;;;;;6.28;2.92;;;;;;;10.30;30.52;94559.22;5020560;28;20099;-93
2023/04/06 07:41:43;;;;;;;7.35;3.53;;;;;;;10.84;30.54;94557.94;5022251;28;20022;-93
2023/04/06 07:46:53;;;;;;;8.50;3.72;;;;;;;11.02;30.04;94561.88;5040167;28;20040;-93
2023/04/06 07:49:20;;;;;;;8.85;4.32;;;;;;;10.94;29.84;94561.63;5036097;28;20358;-92
2023/04/06 07:54:30;;;;;;;9.15;4.30;;;;;;;11.04;29.90;94564.22;5036613;28;20032;-91
2023/04/06 07:56:55;;;;;;;8.68;4.13;;;;;;;11.07;29.56;94568.94;5019822;28;20025;-92
2023/04/06 07:59:36;;;;;;;;;;;;;;;;;;;;;
2023/04/06 08:02:41;;;;;;;15.27;4.22;;;;;;;11.66;29.59;94566.69;5043800;28;20103;-94
2023/04/06 08:05:07;;;;;;;6.72;3.92;;;;;;;11.42;29.60;94559.41;5030180;28;20056;-94
2023/04/06 08:07:36;;;;;;;9.38;4.50;;;;;;;11.28;29.17;94558.41;5039809;28;20101;-95
2023/04/06 08:10:27;;;;;;;9.45;4.00;;;;;;;11.58;31.75;94562.78;5024983;28;20021;-94
2023/04/06 08:13:11;;;;;;;11.23;4.82;;;;;;;11.78;29.10;94550.63;5048654;28;20068;-95
2023/04/06 08:15:36;;;;;;;10.43;4.90;;;;;;;11.45;31.79;94555.47;5024147;28;20025;-94
2023/04/06 08:18:05;;;;;;;10.88;4.40;;;;;;;11.76;29.95;94544.06;5036437;28;20022;-94
2023/04/06 08:20:32;;;;;;;7.28;4.35;;;;;;;11.34;30.94;94546.84;5037137;28;20048;-90
2023/04/06 08:22:58;;;;;;;7.78;4.47;;;;;;;11.78;31.31;94553.25;5035370;28;20028;-89
2023/04/06 08:25:23;;;;;;;10.82;4.75;;;;;;;12.06;30.46;94558.13;5035648;28;20124;-90
2023/04/06 08:27:49;;;;;;;9.98;4.38;;;;;;;12.12;30.72;94552.59;5038867;28;20454;-92
2023/04/06 08:30:15;;;;;;;11.60;5.50;;;;;;;12.14;29.81;94553.09;5015788;28;20022;-89
2023/04/06 08:32:41;;;;;;;9.75;4.80;;;;;;;12.50;28.94;94551.28;5001547;28;20053;-90
2023/04/06 08:35:07;;;;;;;8.88;4.10;;;;;;;12.33;30.06;94552.44;5021245;28;20064;-90
2023/04/06 08:37:33;;;;;;;11.57;5.22;;;;;;;12.62;31.35;94549.06;5021834;28;20029;-90
2023/04/06 08:39:59;;;;;;;12.18;5.10;;;;;;;11.66;29.50;94553.56;5023285;28;20022;-90
2023/04/06 08:42:44;;;;;;;11.73;5.03;;;;;;;11.85;29.97;94545.06;5039002;28;20458;-91
2023/04/06 08:45:09;;;;;;;15.85;5.80;;;;;;;12.26;31.41;94550.13;5039137;28;20033;-91
2023/04/06 08:53:06;;;;;;;9.95;4.85;;;;;;;12.75;30.03;94552.91;5044116;28;20040;-89
2023/04/06 08:55:31;;;;;;;9.82;5.57;;;;;;;12.42;28.85;94550.81;5039621;28;20034;-89
2023/04/06 08:58:05;;;;;;;11.32;5.22;;;;;;;12.89;30.10;94552.25;5038975;28;20351;-90
2023/04/06 09:00:31;;;;;;;10.90;5.05;;;;;;;12.89;30.65;94541.75;5039915;28;20033;-92
2023/04/06 09:02:57;;;;;;;9.50;5.28;;;;;;;12.79;29.69;94547.88;5023159;28;20115;-93
2023/04/06 09:08:13;;;;;;;9.88;5.45;;;;;;;13.49;29.76;94544.06;5039490;28;20068;-92
2023/04/06 09:10:41;;;;;;;11.77;6.22;;;;;;;12.28;30.98;94547.22;5023583;28;20036;-89
2023/04/06 09:13:08;;;;;;;11.23;6.07;;;;;;;13.16;30.44;94541.25;5022134;28;20053;-89
2023/04/06 09:15:40;;;;;;;13.93;6.00;;;;;;;13.25;29.76;94549.31;5023148;28;20039;-89
2023/04/06 09:18:08;;;;;;;10.40;5.53;;;;;;;13.01;29.89;94550.06;5021864;28;20443;-89
2023/04/06 09:20:33;;;;;;;14.93;5.97;;;;;;;13.35;29.69;94548.41;5039153;28;20115;-88
2023/04/06 09:22:59;;;;;;;21.08;5.60;;;;;;;12.89;29.02;94552.25;5022137;28;20063;-89
2023/04/06 09:25:26;;;;;;;12.45;5.22;;;;;;;13.33;29.14;94550.53;5022109;28;20029;-89
2023/04/06 09:28:11;;;;;;;10.60;5.22;;;;;;;13.28;28.32;94538.22;5014291;28;20044;-88
2023/04/06 09:30:36;;;;;;;10.05;5.03;;;;;;;13.17;29.71;94547.28;5015675;28;20035;-89
2023/04/06 09:33:02;;;;;;;9.88;5.20;;;;;;;13.00;31.35;94543.22;5021663;28;20120;-89
2023/04/06 09:35:29;;;;;;;12.57;5.50;;;;;;;11.98;32.24;94536.59;5021993;28;20025;-89
2023/04/06 09:38:14;;;;;;;11.43;5.47;;;;;;;12.13;30.80;94533.13;5022132;28;20406;-89
2023/04/06 09:40:50;;;;;;;9.05;4.78;;;;;;;12.67;30.16;94535.13;5039690;28;20431;-89
2023/04/06 09:43:26;;;;;;;8.05;5.03;;;;;;;12.63;29.67;94529.63;5021703;28;20029;-89
2023/04/06 09:45:52;;;;;;;12.52;4.57;;;;;;;12.83;31.10;94533.13;5041360;28;20021;-89
2023/04/06 09:48:37;;;;;;;12.15;5.55;;;;;;;14.08;31.92;94529.91;5024558;28;20157;-89
2023/04/06 09:51:04;;;;;;;9.40;4.78;;;;;;;14.62;29.03;94524.34;5024734;28;20032;-90
2023/04/06 09:53:31;;;;;;;8.88;5.38;;;;;;;14.50;30.79;94530.88;5021004;28;20064;-89
2023/04/06 09:58:43;;;;;;;13.80;5.10;;;;;;;15.33;28.06;94523.44;5020104;28;20037;-90
2023/04/06 10:01:34;;;;;;;11.45;5.10;;;;;;;15.62;27.34;94527.63;5001485;28;20108;-89
2023/04/06 10:04:13;;;;;;;11.50;5.72;;;;;;;15.79;27.76;94524.41;5028290;28;20393;-90
2023/04/06 10:06:58;;;;;;;12.93;5.70;;;;;;;15.67;26.01;94525.66;5024439;28;20452;-90
2023/04/06 10:09:44;;;;;;;10.45;4.40;;;;;;;15.60;26.93;94511.31;5021215;28;20382;-90
2023/04/06 10:12:10;;;;;;;9.07;5.07;;;;;;;15.20;27.51;94509.16;5052561;28;20024;-90
2023/04/06 10:14:36;;;;;;;7.55;4.25;;;;;;;15.92;27.19;94499.03;5022176;28;20032;-90
2023/04/06 10:17:05;;;;;;;10.40;5.03;;;;;;;15.85;26.26;94502.06;5021146;28;20505;-90
2023/04/06 10:22:57;;;;;;;12.93;5.43;;;;;;;14.83;26.82;94504.53;5058883;28;20036;-92
2023/04/06 10:25:28;;;;;;;10.75;4.78;;;;;;;14.12;26.78;94507.97;5022311;28;20443;-93
2023/04/06 10:27:59;;;;;;;9.77;4.50;;;;;;;15.25;27.44;94503.78;5024405;28;20033;-94
2023/04/06 10:33:28;;;;;;;9.50;4.78;;;;;;;15.78;26.68;94493.75;5042849;28;20489;-85
2023/04/06 10:35:55;;;;;;;16.35;4.93;;;;;;;14.65;26.59;94497.44;5036881;28;20065;-85
2023/04/06 10:38:21;;;;;;;9.63;5.00;;;;;;;15.02;28.42;94492.34;5036717;28;20032;-85
2023/04/06 10:40:47;;;;;;;8.70;4.53;;;;;;;15.39;26.69;94487.94;5039505;28;20067;-85
2023/04/06 10:43:21;;;;;;;13.65;4.63;;;;;;;15.96;29.01;94490.22;5020024;28;20053;-85
2023/04/06 10:45:57;;;;;;;14.52;4.70;;;;;;;16.35;29.32;94484.59;5022656;28;20135;-85
2023/04/06 10:48:41;;;;;;;9.93;5.10;;;;;;;15.66;27.50;94488.97;5020075;28;20041;-85
2023/04/06 10:51:14;;;;;;;13.57;5.18;;;;;;;16.57;27.19;94483.81;5036194;28;20033;-85
2023/04/06 10:53:45;;;;;;;8.57;4.30;;;;;;;16.52;28.11;94484.72;5037923;28;20025;-85
2023/04/06 10:56:30;;;;;;;9.18;5.03;;;;;;;16.14;26.45;94479.78;5035958;28;20037;-85
2023/04/06 10:58:55;;;;;;;12.32;5.15;;;;;;;16.08;26.71;94476.47;5038919;28;20029;-85
2023/04/06 11:01:22;;;;;;;10.07;5.38;;;;;;;16.00;28.79;94471.13;5019719;28;20029;-85
2023/04/06 11:03:53;;;;;;;11.18;5.47;;;;;;;16.12;26.01;94474.03;5004449;28;20087;-85
2023/04/06 11:06:23;;;;;;;8.10;4.60;;;;;;;16.38;28.48;94468.91;5003209;28;20132;-85
2023/04/06 11:08:49;;;;;;;11.30;5.00;;;;;;;16.66;29.80;94462.72;5037600;28;20435;-85
2023/04/06 11:14:17;;;;;;;9.38;4.80;;;;;;;16.99;28.61;94457.13;5022406;28;20041;-84
2023/04/06 11:16:47;;;;;;;8.50;4.22;;;;;;;17.41;26.16;94464.72;5003271;28;20037;-84
2023/04/06 11:19:12;;;;;;;9.07;5.28;;;;;;;16.88;25.27;94459.25;5019601;28;20025;-84
2023/04/06 11:21:39;;;;;;;10.90;5.32;;;;;;;16.84;25.46;94460.91;5019398;28;20462;-83
2023/04/06 11:26:57;;;;;;;9.25;5.22;;;;;;;15.85;27.59;94443.94;5022036;28;20346;-84
2023/04/06 11:29:24;;;;;;;10.00;5.05;;;;;;;15.82;27.08;94447.94;5019686;28;20447;-84
2023/04/06 11:31:51;;;;;;;10.80;5.07;;;;;;;16.36;27.24;94454.44;5019103;28;20026;-84
2023/04/06 11:34:21;;;;;;;10.23;5.32;;;;;;;16.08;26.26;94444.00;5019274;28;20120;-84
2023/04/06 11:36:49;;;;;;;13.02;6.15;;;;;;;15.94;26.94;94441.41;5019237;28;20358;-84
2023/04/06 11:39:25;;;;;;;12.10;4.85;;;;;;;16.91;25.98;94445.41;5019090;28;20350;-84
2023/04/06 11:41:52;;;;;;;14.23;5.35;;;;;;;17.34;27.86;94441.34;5019363;28;20034;-84
2023/04/06 11:44:28;;;;;;;10.65;5.28;;;;;;;15.78;25.27;94438.28;5019695;28;20386;-84
2023/04/06 11:46:54;;;;;;;10.38;4.68;;;;;;;16.42;25.19;94429.44;5036659;28;20033;-84
2023/04/06 11:49:19;;;;;;;11.23;5.00;;;;;;;17.24;30.61;94439.00;5003033;28;20051;-84
2023/04/06 11:52:13;;;;;;;9.82;4.90;;;;;;;17.58;26.40;94434.84;5028563;28;20063;-84
2023/04/06 11:54:58;;;;;;;;;;;;;;;17.01;26.07;94425.84;5021343;28;20037;-85
2023/04/06 11:57:27;;;;;;;11.32;5.35;;;;;;;17.12;25.97;94428.97;5056483;28;19913;-85
2023/04/06 11:59:53;;;;;;;8.25;5.00;;;;;;;16.93;25.67;94427.34;5039019;28;20354;-84
2023/04/06 12:02:18;;;;;;;12.80;5.50;;;;;;;17.33;26.35;94425.78;5035439;28;20034;-84
2023/04/06 12:04:44;;;;;;;12.45;5.75;;;;;;;16.78;26.72;94422.47;5021160;28;20047;-84
2023/04/06 12:07:15;;;;;;;14.27;4.95;;;;;;;17.75;25.84;94425.34;5027301;28;20053;-83
2023/04/06 12:09:41;;;;;;;12.13;5.18;;;;;;;16.33;25.73;94420.66;5037153;28;20355;-83
2023/04/06 12:12:06;;;;;;;11.77;5.35;;;;;;;17.22;28.13;94420.00;5036274;28;20079;-84
2023/04/06 12:14:51;;;;;;;9.70;4.80;;;;;;;18.12;25.90;94427.72;5040700;28;20431;-84
2023/04/06 12:17:16;;;;;;;13.07;6.07;;;;;;;16.98;25.72;94423.78;5039358;28;20071;-84
2023/04/06 12:19:42;;;;;;;11.90;6.22;;;;;;;16.30;26.66;94408.06;5041555;28;20030;-84
2023/04/06 12:22:26;;;;;;;15.25;6.03;;;;;;;17.69;26.66;94416.78;5039163;28;20028;-84
2023/04/06 12:27:35;;;;;;;12.23;6.40;;;;;;;17.51;28.88;94416.00;5045097;28;20059;-83
2023/04/06 12:33:25;;;;;;;12.98;6.18;;;;;;;17.81;27.27;94397.63;5054079;28;20039;-92
2023/04/06 12:35:55;;;;;;;14.00;6.65;;;;;;;18.06;26.10;94404.03;5040955;28;20171;-94
2023/04/06 12:38:33;;;;;;;;;;;;;;;;;;;;;
2023/04/06 12:41:05;;;;;;;14.10;6.82;;;;;;;18.49;26.20;94399.72;5045891;28;20047;-93
2023/04/06 12:44:02;;;;;;;;;;;;;;;;;;;;;
2023/04/06 12:46:45;;;;;;;11.48;6.40;;;;;;;18.00;29.01;94397.28;5042151;28;20108;-94
2023/04/06 12:52:36;;;;;;;12.63;6.00;;;;;;;18.73;25.37;94393.09;5047633;28;20041;-94
2023/04/06 12:55:10;;;;;;;14.45;6.82;;;;;;;18.23;25.46;94392.63;5028998;28;20182;-92
2023/04/06 13:00:57;;;;;;;;;;;;;;;;;;;;;